sensor_id;sensor_type;location;lat;lon;timestamp;P1;durP1;ratioP1;P2;durP2;ratioP2
55150;SDS011;41041;43.162;20.538;2023-04-03T00:00:44;10.52;;;7.22;;
55150;SDS011;41041;43.162;20.538;2023-04-03T00:03:10;12.38;;;6.65;;
55150;SDS011;41041;43.162;20.538;2023-04-03T00:05:38;9.63;;;6.13;;
55150;SDS011;41041;43.162;20.538;2023-04-03T00:08:04;7.22;;;4.97;;
55150;SDS011;41041;43.162;20.538;2023-04-03T00:10:32;8.23;;;5.20;;
55150;SDS011;41041;43.162;20.538;2023-04-03T00:15:30;9.52;;;5.10;;
55150;SDS011;41041;43.162;20.538;2023-04-03T00:17:56;11.82;;;6.70;;
55150;SDS011;41041;43.162;20.538;2023-04-03T00:20:22;9.43;;;5.13;;
55150;SDS011;41041;43.162;20.538;2023-04-03T00:22:48;9.27;;;5.60;;
55150;SDS011;41041;43.162;20.538;2023-04-03T00:25:15;10.35;;;5.45;;
55150;SDS011;41041;43.162;20.538;2023-04-03T00:27:41;8.20;;;4.45;;
55150;SDS011;41041;43.162;20.538;2023-04-03T00:30:07;7.60;;;4.13;;
55150;SDS011;41041;43.162;20.538;2023-04-03T00:32:34;7.38;;;3.78;;
55150;SDS011;41041;43.162;20.538;2023-04-03T00:35:00;7.18;;;4.20;;
55150;SDS011;41041;43.162;20.538;2023-04-03T00:37:26;13.98;;;6.72;;
55150;SDS011;41041;43.162;20.538;2023-04-03T00:39:52;11.18;;;6.80;;
55150;SDS011;41041;43.162;20.538;2023-04-03T00:42:18;13.82;;;6.57;;
55150;SDS011;41041;43.162;20.538;2023-04-03T00:47:11;18.35;;;9.57;;
55150;SDS011;41041;43.162;20.538;2023-04-03T00:49:37;14.70;;;8.23;;
55150;SDS011;41041;43.162;20.538;2023-04-03T00:52:05;13.45;;;8.13;;
55150;SDS011;41041;43.162;20.538;2023-04-03T00:54:32;11.38;;;7.40;;
55150;SDS011;41041;43.162;20.538;2023-04-03T00:56:58;10.18;;;6.25;;
55150;SDS011;41041;43.162;20.538;2023-04-03T00:59:38;12.18;;;7.45;;
55150;SDS011;41041;43.162;20.538;2023-04-03T01:02:06;11.93;;;7.57;;
55150;SDS011;41041;43.162;20.538;2023-04-03T01:04:33;12.52;;;7.13;;
55150;SDS011;41041;43.162;20.538;2023-04-03T01:07:02;11.88;;;6.70;;
55150;SDS011;41041;43.162;20.538;2023-04-03T01:09:28;10.65;;;6.15;;
55150;SDS011;41041;43.162;20.538;2023-04-03T01:12:12;11.95;;;6.38;;
55150;SDS011;41041;43.162;20.538;2023-04-03T01:14:38;10.35;;;6.40;;
55150;SDS011;41041;43.162;20.538;2023-04-03T01:17:20;11.43;;;5.95;;
55150;SDS011;41041;43.162;20.538;2023-04-03T01:19:47;9.07;;;4.80;;
55150;SDS011;41041;43.162;20.538;2023-04-03T01:22:18;10.32;;;5.25;;
55150;SDS011;41041;43.162;20.538;2023-04-03T01:24:45;9.02;;;4.88;;
55150;SDS011;41041;43.162;20.538;2023-04-03T01:27:14;8.02;;;4.25;;
55150;SDS011;41041;43.162;20.538;2023-04-03T01:29:40;7.00;;;4.03;;
55150;SDS011;41041;43.162;20.538;2023-04-03T01:32:08;6.05;;;3.35;;
55150;SDS011;41041;43.162;20.538;2023-04-03T01:34:34;7.63;;;4.05;;
55150;SDS011;41041;43.162;20.538;2023-04-03T01:37:00;9.02;;;4.50;;
55150;SDS011;41041;43.162;20.538;2023-04-03T01:39:26;9.00;;;4.38;;
55150;SDS011;41041;43.162;20.538;2023-04-03T01:41:52;8.13;;;4.18;;
55150;SDS011;41041;43.162;20.538;2023-04-03T01:44:23;9.77;;;5.68;;
55150;SDS011;41041;43.162;20.538;2023-04-03T01:46:49;7.67;;;4.57;;
55150;SDS011;41041;43.162;20.538;2023-04-03T01:49:15;7.57;;;4.78;;
55150;SDS011;41041;43.162;20.538;2023-04-03T01:51:41;7.82;;;3.80;;
55150;SDS011;41041;43.162;20.538;2023-04-03T01:54:07;9.07;;;4.07;;
55150;SDS011;41041;43.162;20.538;2023-04-03T01:56:33;7.38;;;4.85;;
55150;SDS011;41041;43.162;20.538;2023-04-03T01:58:59;7.50;;;4.70;;
55150;SDS011;41041;43.162;20.538;2023-04-03T02:01:25;9.05;;;5.72;;
55150;SDS011;41041;43.162;20.538;2023-04-03T02:03:51;9.18;;;6.00;;
55150;SDS011;41041;43.162;20.538;2023-04-03T02:06:18;9.35;;;5.85;;
55150;SDS011;41041;43.162;20.538;2023-04-03T02:08:45;7.80;;;5.30;;
55150;SDS011;41041;43.162;20.538;2023-04-03T02:11:11;8.32;;;5.20;;
55150;SDS011;41041;43.162;20.538;2023-04-03T02:13:39;10.25;;;6.00;;
55150;SDS011;41041;43.162;20.538;2023-04-03T02:16:09;9.85;;;6.30;;
55150;SDS011;41041;43.162;20.538;2023-04-03T02:18:36;9.35;;;6.18;;
55150;SDS011;41041;43.162;20.538;2023-04-03T02:21:02;11.32;;;5.50;;
55150;SDS011;41041;43.162;20.538;2023-04-03T02:23:28;9.57;;;5.88;;
55150;SDS011;41041;43.162;20.538;2023-04-03T02:26:02;11.07;;;5.85;;
55150;SDS011;41041;43.162;20.538;2023-04-03T02:28:28;11.32;;;5.55;;
55150;SDS011;41041;43.162;20.538;2023-04-03T02:30:54;8.15;;;4.50;;
55150;SDS011;41041;43.162;20.538;2023-04-03T02:33:20;10.05;;;5.10;;
55150;SDS011;41041;43.162;20.538;2023-04-03T02:35:46;10.32;;;5.85;;
55150;SDS011;41041;43.162;20.538;2023-04-03T02:38:18;8.68;;;5.75;;
55150;SDS011;41041;43.162;20.538;2023-04-03T02:40:46;7.10;;;4.38;;
55150;SDS011;41041;43.162;20.538;2023-04-03T02:43:12;6.40;;;4.10;;
55150;SDS011;41041;43.162;20.538;2023-04-03T02:45:38;9.48;;;5.25;;
55150;SDS011;41041;43.162;20.538;2023-04-03T02:48:04;8.20;;;4.90;;
55150;SDS011;41041;43.162;20.538;2023-04-03T02:50:31;10.05;;;6.80;;
55150;SDS011;41041;43.162;20.538;2023-04-03T02:52:57;16.08;;;10.25;;
55150;SDS011;41041;43.162;20.538;2023-04-03T02:55:23;12.38;;;7.18;;
55150;SDS011;41041;43.162;20.538;2023-04-03T02:57:49;12.45;;;6.60;;
55150;SDS011;41041;43.162;20.538;2023-04-03T03:00:15;11.65;;;6.78;;
55150;SDS011;41041;43.162;20.538;2023-04-03T03:02:41;14.18;;;7.60;;
55150;SDS011;41041;43.162;20.538;2023-04-03T03:05:07;12.30;;;6.40;;
55150;SDS011;41041;43.162;20.538;2023-04-03T03:07:33;11.80;;;5.78;;
55150;SDS011;41041;43.162;20.538;2023-04-03T03:09:59;9.35;;;5.55;;
55150;SDS011;41041;43.162;20.538;2023-04-03T03:12:35;12.05;;;6.72;;
55150;SDS011;41041;43.162;20.538;2023-04-03T03:15:01;17.70;;;9.00;;
55150;SDS011;41041;43.162;20.538;2023-04-03T03:17:27;15.95;;;9.32;;
55150;SDS011;41041;43.162;20.538;2023-04-03T03:19:55;14.65;;;9.30;;
55150;SDS011;41041;43.162;20.538;2023-04-03T03:22:21;11.68;;;7.47;;
55150;SDS011;41041;43.162;20.538;2023-04-03T03:24:47;13.95;;;7.75;;
55150;SDS011;41041;43.162;20.538;2023-04-03T03:27:13;12.32;;;7.38;;
55150;SDS011;41041;43.162;20.538;2023-04-03T03:29:41;8.32;;;4.85;;
55150;SDS011;41041;43.162;20.538;2023-04-03T03:32:07;11.35;;;4.90;;
55150;SDS011;41041;43.162;20.538;2023-04-03T03:34:33;10.85;;;5.90;;
55150;SDS011;41041;43.162;20.538;2023-04-03T03:36:59;11.18;;;8.18;;
55150;SDS011;41041;43.162;20.538;2023-04-03T03:39:25;9.27;;;5.22;;
55150;SDS011;41041;43.162;20.538;2023-04-03T03:41:52;10.30;;;6.22;;
55150;SDS011;41041;43.162;20.538;2023-04-03T03:44:18;9.07;;;6.03;;
55150;SDS011;41041;43.162;20.538;2023-04-03T03:46:44;11.93;;;7.47;;
55150;SDS011;41041;43.162;20.538;2023-04-03T03:49:11;10.57;;;6.47;;
55150;SDS011;41041;43.162;20.538;2023-04-03T03:51:37;11.82;;;7.05;;
55150;SDS011;41041;43.162;20.538;2023-04-03T03:54:04;7.47;;;4.40;;
55150;SDS011;41041;43.162;20.538;2023-04-03T03:56:30;7.00;;;4.03;;
55150;SDS011;41041;43.162;20.538;2023-04-03T03:58:56;11.73;;;6.35;;
55150;SDS011;41041;43.162;20.538;2023-04-03T04:01:23;11.90;;;5.93;;
55150;SDS011;41041;43.162;20.538;2023-04-03T04:06:41;10.63;;;6.28;;
55150;SDS011;41041;43.162;20.538;2023-04-03T04:09:08;10.57;;;6.28;;
55150;SDS011;41041;43.162;20.538;2023-04-03T04:11:34;10.55;;;6.25;;
55150;SDS011;41041;43.162;20.538;2023-04-03T04:14:00;11.15;;;6.68;;
55150;SDS011;41041;43.162;20.538;2023-04-03T04:16:26;10.35;;;6.55;;
55150;SDS011;41041;43.162;20.538;2023-04-03T04:18:52;11.10;;;6.53;;
55150;SDS011;41041;43.162;20.538;2023-04-03T04:21:18;13.45;;;6.72;;
55150;SDS011;41041;43.162;20.538;2023-04-03T04:23:45;14.98;;;6.80;;
55150;SDS011;41041;43.162;20.538;2023-04-03T04:26:11;13.00;;;7.18;;
55150;SDS011;41041;43.162;20.538;2023-04-03T04:28:37;11.57;;;6.50;;
55150;SDS011;41041;43.162;20.538;2023-04-03T04:31:03;17.90;;;6.90;;
55150;SDS011;41041;43.162;20.538;2023-04-03T04:33:33;12.68;;;6.80;;
55150;SDS011;41041;43.162;20.538;2023-04-03T04:35:59;11.90;;;7.20;;
55150;SDS011;41041;43.162;20.538;2023-04-03T04:38:25;12.48;;;6.72;;
55150;SDS011;41041;43.162;20.538;2023-04-03T04:41:07;12.65;;;7.18;;
55150;SDS011;41041;43.162;20.538;2023-04-03T04:43:33;12.20;;;7.00;;
55150;SDS011;41041;43.162;20.538;2023-04-03T04:46:03;13.40;;;7.68;;
55150;SDS011;41041;43.162;20.538;2023-04-03T04:48:30;15.65;;;7.90;;
55150;SDS011;41041;43.162;20.538;2023-04-03T04:50:56;13.23;;;7.38;;
55150;SDS011;41041;43.162;20.538;2023-04-03T04:53:23;9.60;;;6.25;;
55150;SDS011;41041;43.162;20.538;2023-04-03T04:55:49;10.63;;;6.30;;
55150;SDS011;41041;43.162;20.538;2023-04-03T04:58:17;14.30;;;7.00;;
55150;SDS011;41041;43.162;20.538;2023-04-03T05:00:43;11.77;;;6.18;;
55150;SDS011;41041;43.162;20.538;2023-04-03T05:05:49;13.60;;;6.97;;
55150;SDS011;41041;43.162;20.538;2023-04-03T05:10:49;13.43;;;6.80;;
55150;SDS011;41041;43.162;20.538;2023-04-03T05:13:17;10.45;;;6.32;;
55150;SDS011;41041;43.162;20.538;2023-04-03T05:15:47;11.38;;;5.45;;
55150;SDS011;41041;43.162;20.538;2023-04-03T05:18:13;11.07;;;6.40;;
55150;SDS011;41041;43.162;20.538;2023-04-03T05:20:40;14.68;;;7.97;;
55150;SDS011;41041;43.162;20.538;2023-04-03T05:23:06;10.45;;;6.65;;
55150;SDS011;41041;43.162;20.538;2023-04-03T05:25:32;13.90;;;7.57;;
55150;SDS011;41041;43.162;20.538;2023-04-03T05:27:58;11.18;;;6.90;;
55150;SDS011;41041;43.162;20.538;2023-04-03T05:30:24;12.77;;;6.13;;
55150;SDS011;41041;43.162;20.538;2023-04-03T05:32:50;10.75;;;5.88;;
55150;SDS011;41041;43.162;20.538;2023-04-03T05:35:16;13.25;;;6.45;;
55150;SDS011;41041;43.162;20.538;2023-04-03T05:37:42;13.57;;;5.65;;
55150;SDS011;41041;43.162;20.538;2023-04-03T05:40:08;13.52;;;6.32;;
55150;SDS011;41041;43.162;20.538;2023-04-03T05:42:34;24.80;;;8.25;;
55150;SDS011;41041;43.162;20.538;2023-04-03T05:45:01;33.95;;;10.85;;
55150;SDS011;41041;43.162;20.538;2023-04-03T05:47:27;25.98;;;10.77;;
55150;SDS011;41041;43.162;20.538;2023-04-03T05:49:53;21.73;;;10.75;;
55150;SDS011;41041;43.162;20.538;2023-04-03T05:52:27;21.98;;;10.90;;
55150;SDS011;41041;43.162;20.538;2023-04-03T05:54:54;24.73;;;11.68;;
55150;SDS011;41041;43.162;20.538;2023-04-03T05:57:20;28.63;;;15.52;;
55150;SDS011;41041;43.162;20.538;2023-04-03T05:59:47;35.67;;;16.85;;
55150;SDS011;41041;43.162;20.538;2023-04-03T06:02:14;48.35;;;24.05;;
55150;SDS011;41041;43.162;20.538;2023-04-03T06:04:41;51.42;;;27.52;;
55150;SDS011;41041;43.162;20.538;2023-04-03T06:07:08;44.17;;;25.27;;
55150;SDS011;41041;43.162;20.538;2023-04-03T06:09:36;54.97;;;27.08;;
55150;SDS011;41041;43.162;20.538;2023-04-03T06:12:02;50.13;;;27.02;;
55150;SDS011;41041;43.162;20.538;2023-04-03T06:14:28;43.20;;;24.42;;
55150;SDS011;41041;43.162;20.538;2023-04-03T06:16:54;51.38;;;31.35;;
55150;SDS011;41041;43.162;20.538;2023-04-03T06:19:20;46.80;;;28.23;;
55150;SDS011;41041;43.162;20.538;2023-04-03T06:21:46;50.53;;;31.25;;
55150;SDS011;41041;43.162;20.538;2023-04-03T06:24:14;49.17;;;32.25;;
55150;SDS011;41041;43.162;20.538;2023-04-03T06:26:40;54.35;;;32.83;;
55150;SDS011;41041;43.162;20.538;2023-04-03T06:29:07;53.63;;;32.90;;
55150;SDS011;41041;43.162;20.538;2023-04-03T06:31:33;53.67;;;32.95;;
55150;SDS011;41041;43.162;20.538;2023-04-03T06:34:01;50.88;;;33.95;;
55150;SDS011;41041;43.162;20.538;2023-04-03T06:36:27;57.22;;;34.13;;
55150;SDS011;41041;43.162;20.538;2023-04-03T06:38:54;62.10;;;34.90;;
55150;SDS011;41041;43.162;20.538;2023-04-03T06:41:21;63.33;;;34.55;;
55150;SDS011;41041;43.162;20.538;2023-04-03T06:43:48;53.95;;;32.28;;
55150;SDS011;41041;43.162;20.538;2023-04-03T06:46:18;52.67;;;30.05;;
55150;SDS011;41041;43.162;20.538;2023-04-03T06:48:45;54.45;;;31.42;;
55150;SDS011;41041;43.162;20.538;2023-04-03T06:51:14;46.50;;;29.45;;
55150;SDS011;41041;43.162;20.538;2023-04-03T06:53:48;41.85;;;23.90;;
55150;SDS011;41041;43.162;20.538;2023-04-03T06:56:14;33.42;;;22.65;;
55150;SDS011;41041;43.162;20.538;2023-04-03T06:58:40;33.13;;;21.33;;
55150;SDS011;41041;43.162;20.538;2023-04-03T07:01:07;26.63;;;17.65;;
55150;SDS011;41041;43.162;20.538;2023-04-03T07:03:34;27.35;;;17.55;;
55150;SDS011;41041;43.162;20.538;2023-04-03T07:09:04;17.52;;;13.35;;
55150;SDS011;41041;43.162;20.538;2023-04-03T07:11:30;16.63;;;11.85;;
55150;SDS011;41041;43.162;20.538;2023-04-03T07:13:56;14.32;;;11.60;;
55150;SDS011;41041;43.162;20.538;2023-04-03T07:16:22;13.30;;;10.85;;
55150;SDS011;41041;43.162;20.538;2023-04-03T07:18:48;12.77;;;9.02;;
55150;SDS011;41041;43.162;20.538;2023-04-03T07:21:14;13.77;;;10.90;;
55150;SDS011;41041;43.162;20.538;2023-04-03T07:23:40;11.82;;;9.20;;
55150;SDS011;41041;43.162;20.538;2023-04-03T07:26:07;15.93;;;9.57;;
55150;SDS011;41041;43.162;20.538;2023-04-03T07:28:34;12.05;;;9.52;;
55150;SDS011;41041;43.162;20.538;2023-04-03T07:31:02;10.07;;;8.18;;
55150;SDS011;41041;43.162;20.538;2023-04-03T07:33:28;13.63;;;9.00;;
55150;SDS011;41041;43.162;20.538;2023-04-03T07:35:54;10.63;;;7.35;;
55150;SDS011;41041;43.162;20.538;2023-04-03T07:38:21;11.48;;;7.88;;
55150;SDS011;41041;43.162;20.538;2023-04-03T07:40:47;10.85;;;7.82;;
55150;SDS011;41041;43.162;20.538;2023-04-03T07:43:17;7.55;;;6.00;;
55150;SDS011;41041;43.162;20.538;2023-04-03T07:45:43;10.10;;;6.05;;
55150;SDS011;41041;43.162;20.538;2023-04-03T07:48:10;7.13;;;5.47;;
55150;SDS011;41041;43.162;20.538;2023-04-03T07:50:37;6.75;;;4.95;;
55150;SDS011;41041;43.162;20.538;2023-04-03T07:53:07;6.38;;;4.90;;
55150;SDS011;41041;43.162;20.538;2023-04-03T07:55:33;6.85;;;4.57;;
55150;SDS011;41041;43.162;20.538;2023-04-03T07:57:59;6.97;;;4.75;;
55150;SDS011;41041;43.162;20.538;2023-04-03T08:00:25;6.10;;;3.80;;
55150;SDS011;41041;43.162;20.538;2023-04-03T08:02:51;7.28;;;4.15;;
55150;SDS011;41041;43.162;20.538;2023-04-03T08:05:18;4.90;;;3.90;;
55150;SDS011;41041;43.162;20.538;2023-04-03T08:07:44;7.68;;;3.92;;
55150;SDS011;41041;43.162;20.538;2023-04-03T08:10:11;5.78;;;3.83;;
55150;SDS011;41041;43.162;20.538;2023-04-03T08:12:37;4.13;;;2.97;;
55150;SDS011;41041;43.162;20.538;2023-04-03T08:15:03;4.00;;;2.90;;
55150;SDS011;41041;43.162;20.538;2023-04-03T08:17:29;4.60;;;2.65;;
55150;SDS011;41041;43.162;20.538;2023-04-03T08:19:55;4.88;;;2.63;;
55150;SDS011;41041;43.162;20.538;2023-04-03T08:22:21;6.40;;;2.60;;
55150;SDS011;41041;43.162;20.538;2023-04-03T08:24:47;7.78;;;2.42;;
55150;SDS011;41041;43.162;20.538;2023-04-03T08:27:13;5.70;;;2.40;;
55150;SDS011;41041;43.162;20.538;2023-04-03T08:29:40;5.03;;;2.17;;
55150;SDS011;41041;43.162;20.538;2023-04-03T08:32:06;2.60;;;1.73;;
55150;SDS011;41041;43.162;20.538;2023-04-03T08:34:32;2.10;;;1.40;;
55150;SDS011;41041;43.162;20.538;2023-04-03T08:37:00;2.30;;;1.60;;
55150;SDS011;41041;43.162;20.538;2023-04-03T08:39:26;4.95;;;1.35;;
55150;SDS011;41041;43.162;20.538;2023-04-03T08:41:52;2.00;;;1.23;;
55150;SDS011;41041;43.162;20.538;2023-04-03T08:49:20;3.08;;;1.20;;
55150;SDS011;41041;43.162;20.538;2023-04-03T08:51:48;4.70;;;1.48;;
55150;SDS011;41041;43.162;20.538;2023-04-03T08:54:24;1.75;;;1.30;;
55150;SDS011;41041;43.162;20.538;2023-04-03T08:56:51;2.20;;;1.50;;
55150;SDS011;41041;43.162;20.538;2023-04-03T09:02:04;3.25;;;1.23;;
55150;SDS011;41041;43.162;20.538;2023-04-03T09:04:32;2.42;;;1.40;;
55150;SDS011;41041;43.162;20.538;2023-04-03T09:07:08;7.15;;;1.70;;
55150;SDS011;41041;43.162;20.538;2023-04-03T09:17:49;2.83;;;1.60;;
55150;SDS011;41041;43.162;20.538;2023-04-03T09:20:38;2.67;;;1.60;;
55150;SDS011;41041;43.162;20.538;2023-04-03T09:23:13;2.05;;;1.60;;
55150;SDS011;41041;43.162;20.538;2023-04-03T09:25:41;4.65;;;1.85;;
55150;SDS011;41041;43.162;20.538;2023-04-03T09:28:08;5.57;;;2.00;;
55150;SDS011;41041;43.162;20.538;2023-04-03T09:30:35;4.38;;;2.30;;
55150;SDS011;41041;43.162;20.538;2023-04-03T09:33:02;4.60;;;2.00;;
55150;SDS011;41041;43.162;20.538;2023-04-03T09:35:30;3.17;;;2.20;;
55150;SDS011;41041;43.162;20.538;2023-04-03T09:38:01;3.22;;;2.30;;
55150;SDS011;41041;43.162;20.538;2023-04-03T09:40:35;4.40;;;2.38;;
55150;SDS011;41041;43.162;20.538;2023-04-03T09:45:47;4.00;;;2.42;;
55150;SDS011;41041;43.162;20.538;2023-04-03T09:50:56;2.50;;;1.90;;
55150;SDS011;41041;43.162;20.538;2023-04-03T09:55:53;3.47;;;2.35;;
55150;SDS011;41041;43.162;20.538;2023-04-03T09:58:38;3.15;;;2.17;;
55150;SDS011;41041;43.162;20.538;2023-04-03T10:01:11;26.27;;;2.28;;
55150;SDS011;41041;43.162;20.538;2023-04-03T10:03:47;4.68;;;2.35;;
55150;SDS011;41041;43.162;20.538;2023-04-03T10:06:29;2.55;;;1.80;;
55150;SDS011;41041;43.162;20.538;2023-04-03T10:09:00;2.63;;;1.80;;
55150;SDS011;41041;43.162;20.538;2023-04-03T10:11:29;3.67;;;1.50;;
55150;SDS011;41041;43.162;20.538;2023-04-03T10:14:00;3.83;;;1.90;;
55150;SDS011;41041;43.162;20.538;2023-04-03T10:16:34;3.53;;;2.10;;
55150;SDS011;41041;43.162;20.538;2023-04-03T10:19:14;4.57;;;2.10;;
55150;SDS011;41041;43.162;20.538;2023-04-03T10:21:55;3.60;;;1.98;;
55150;SDS011;41041;43.162;20.538;2023-04-03T10:35:02;3.22;;;2.10;;
55150;SDS011;41041;43.162;20.538;2023-04-03T10:37:35;5.63;;;2.22;;
55150;SDS011;41041;43.162;20.538;2023-04-03T10:51:45;2.88;;;2.38;;
55150;SDS011;41041;43.162;20.538;2023-04-03T10:56:15;3.72;;;2.92;;
55150;SDS011;41041;43.162;20.538;2023-04-03T10:58:46;9.10;;;4.13;;
55150;SDS011;41041;43.162;20.538;2023-04-03T11:01:16;4.80;;;3.60;;
55150;SDS011;41041;43.162;20.538;2023-04-03T11:03:45;5.70;;;3.83;;
55150;SDS011;41041;43.162;20.538;2023-04-03T11:06:13;7.43;;;3.97;;
55150;SDS011;41041;43.162;20.538;2023-04-03T11:08:45;6.72;;;4.25;;
55150;SDS011;41041;43.162;20.538;2023-04-03T11:11:16;6.57;;;4.15;;
55150;SDS011;41041;43.162;20.538;2023-04-03T11:13:45;8.65;;;4.20;;
55150;SDS011;41041;43.162;20.538;2023-04-03T11:16:14;5.68;;;4.10;;
55150;SDS011;41041;43.162;20.538;2023-04-03T11:18:52;5.65;;;3.58;;
55150;SDS011;41041;43.162;20.538;2023-04-03T11:21:32;7.90;;;3.58;;
55150;SDS011;41041;43.162;20.538;2023-04-03T11:24:00;8.55;;;4.10;;
55150;SDS011;41041;43.162;20.538;2023-04-03T11:26:29;6.20;;;3.70;;
55150;SDS011;41041;43.162;20.538;2023-04-03T11:29:08;7.72;;;3.42;;
55150;SDS011;41041;43.162;20.538;2023-04-03T11:36:31;8.63;;;3.70;;
55150;SDS011;41041;43.162;20.538;2023-04-03T11:39:16;6.75;;;4.15;;
55150;SDS011;41041;43.162;20.538;2023-04-03T11:41:45;8.45;;;4.50;;
55150;SDS011;41041;43.162;20.538;2023-04-03T11:44:53;9.90;;;4.72;;
55150;SDS011;41041;43.162;20.538;2023-04-03T11:47:02;8.93;;;4.68;;
55150;SDS011;41041;43.162;20.538;2023-04-03T11:52:13;6.20;;;4.38;;
55150;SDS011;41041;43.162;20.538;2023-04-03T11:54:59;8.27;;;4.22;;
55150;SDS011;41041;43.162;20.538;2023-04-03T11:57:44;13.88;;;4.78;;
55150;SDS011;41041;43.162;20.538;2023-04-03T12:00:54;7.85;;;4.13;;
55150;SDS011;41041;43.162;20.538;2023-04-03T12:03:06;10.70;;;4.72;;
55150;SDS011;41041;43.162;20.538;2023-04-03T12:05:55;8.48;;;4.72;;
55150;SDS011;41041;43.162;20.538;2023-04-03T12:08:30;6.40;;;4.45;;
55150;SDS011;41041;43.162;20.538;2023-04-03T12:29:01;12.10;;;4.50;;
55150;SDS011;41041;43.162;20.538;2023-04-03T12:31:33;6.93;;;4.63;;
55150;SDS011;41041;43.162;20.538;2023-04-03T12:34:24;8.80;;;5.28;;
55150;SDS011;41041;43.162;20.538;2023-04-03T12:41:58;7.10;;;4.80;;
55150;SDS011;41041;43.162;20.538;2023-04-03T12:44:47;8.02;;;4.93;;
55150;SDS011;41041;43.162;20.538;2023-04-03T12:47:26;8.38;;;4.80;;
55150;SDS011;41041;43.162;20.538;2023-04-03T12:49:53;6.88;;;4.88;;
55150;SDS011;41041;43.162;20.538;2023-04-03T12:52:32;7.05;;;4.75;;
55150;SDS011;41041;43.162;20.538;2023-04-03T12:54:59;7.35;;;4.45;;
55150;SDS011;41041;43.162;20.538;2023-04-03T12:57:28;7.82;;;4.28;;
55150;SDS011;41041;43.162;20.538;2023-04-03T12:59:54;9.05;;;4.47;;
55150;SDS011;41041;43.162;20.538;2023-04-03T13:02:31;5.72;;;4.18;;
55150;SDS011;41041;43.162;20.538;2023-04-03T13:04:59;5.93;;;4.50;;
55150;SDS011;41041;43.162;20.538;2023-04-03T13:07:34;9.73;;;4.30;;
55150;SDS011;41041;43.162;20.538;2023-04-03T13:10:23;11.98;;;4.28;;
55150;SDS011;41041;43.162;20.538;2023-04-03T13:12:50;7.68;;;4.30;;
55150;SDS011;41041;43.162;20.538;2023-04-03T13:17:43;16.88;;;6.30;;
55150;SDS011;41041;43.162;20.538;2023-04-03T13:20:13;12.10;;;7.07;;
55150;SDS011;41041;43.162;20.538;2023-04-03T13:22:43;13.75;;;7.85;;
55150;SDS011;41041;43.162;20.538;2023-04-03T13:25:13;21.77;;;13.02;;
55150;SDS011;41041;43.162;20.538;2023-04-03T13:27:39;7.95;;;4.85;;
55150;SDS011;41041;43.162;20.538;2023-04-03T13:30:29;6.38;;;4.07;;
55150;SDS011;41041;43.162;20.538;2023-04-03T13:32:54;5.70;;;4.10;;
55150;SDS011;41041;43.162;20.538;2023-04-03T13:35:34;13.32;;;5.75;;
55150;SDS011;41041;43.162;20.538;2023-04-03T13:40:52;6.30;;;4.38;;
55150;SDS011;41041;43.162;20.538;2023-04-03T13:43:28;6.47;;;4.32;;
55150;SDS011;41041;43.162;20.538;2023-04-03T13:48:46;6.57;;;4.25;;
55150;SDS011;41041;43.162;20.538;2023-04-03T13:53:44;9.00;;;4.55;;
55150;SDS011;41041;43.162;20.538;2023-04-03T13:58:54;9.38;;;4.15;;
55150;SDS011;41041;43.162;20.538;2023-04-03T14:01:21;6.63;;;4.22;;
55150;SDS011;41041;43.162;20.538;2023-04-03T14:06:34;9.75;;;3.75;;
55150;SDS011;41041;43.162;20.538;2023-04-03T14:09:01;15.48;;;4.00;;
55150;SDS011;41041;43.162;20.538;2023-04-03T14:11:39;39.17;;;4.78;;
55150;SDS011;41041;43.162;20.538;2023-04-03T14:14:09;6.45;;;3.88;;
55150;SDS011;41041;43.162;20.538;2023-04-03T14:16:38;7.00;;;3.80;;
55150;SDS011;41041;43.162;20.538;2023-04-03T14:19:05;14.60;;;4.28;;
55150;SDS011;41041;43.162;20.538;2023-04-03T14:21:31;7.63;;;4.00;;
55150;SDS011;41041;43.162;20.538;2023-04-03T14:23:57;4.13;;;3.22;;
55150;SDS011;41041;43.162;20.538;2023-04-03T14:26:24;7.07;;;3.72;;
55150;SDS011;41041;43.162;20.538;2023-04-03T14:28:53;7.68;;;3.75;;
55150;SDS011;41041;43.162;20.538;2023-04-03T14:31:20;15.23;;;4.28;;
55150;SDS011;41041;43.162;20.538;2023-04-03T14:33:47;4.93;;;3.78;;
55150;SDS011;41041;43.162;20.538;2023-04-03T14:36:18;8.82;;;3.60;;
55150;SDS011;41041;43.162;20.538;2023-04-03T14:38:45;9.68;;;3.85;;
55150;SDS011;41041;43.162;20.538;2023-04-03T14:41:12;7.68;;;4.10;;
55150;SDS011;41041;43.162;20.538;2023-04-03T14:43:39;7.57;;;4.20;;
55150;SDS011;41041;43.162;20.538;2023-04-03T14:46:05;6.85;;;4.15;;
55150;SDS011;41041;43.162;20.538;2023-04-03T14:48:35;7.32;;;4.50;;
55150;SDS011;41041;43.162;20.538;2023-04-03T14:51:01;6.22;;;4.80;;
55150;SDS011;41041;43.162;20.538;2023-04-03T14:53:30;10.13;;;5.35;;
55150;SDS011;41041;43.162;20.538;2023-04-03T14:55:57;9.35;;;6.20;;
55150;SDS011;41041;43.162;20.538;2023-04-03T14:58:23;15.93;;;10.23;;
55150;SDS011;41041;43.162;20.538;2023-04-03T15:00:49;18.60;;;11.93;;
55150;SDS011;41041;43.162;20.538;2023-04-03T15:03:17;13.38;;;8.27;;
55150;SDS011;41041;43.162;20.538;2023-04-03T15:05:44;14.05;;;9.50;;
55150;SDS011;41041;43.162;20.538;2023-04-03T15:10:42;12.25;;;8.30;;
55150;SDS011;41041;43.162;20.538;2023-04-03T15:13:14;10.57;;;6.40;;
55150;SDS011;41041;43.162;20.538;2023-04-03T15:15:43;7.78;;;6.07;;
55150;SDS011;41041;43.162;20.538;2023-04-03T15:18:10;18.15;;;7.28;;
55150;SDS011;41041;43.162;20.538;2023-04-03T15:20:39;11.75;;;7.03;;
55150;SDS011;41041;43.162;20.538;2023-04-03T15:23:06;10.50;;;6.43;;
55150;SDS011;41041;43.162;20.538;2023-04-03T15:25:32;12.82;;;6.22;;
55150;SDS011;41041;43.162;20.538;2023-04-03T15:27:58;12.18;;;6.65;;
55150;SDS011;41041;43.162;20.538;2023-04-03T15:30:25;9.75;;;7.00;;
55150;SDS011;41041;43.162;20.538;2023-04-03T15:32:51;13.32;;;9.07;;
55150;SDS011;41041;43.162;20.538;2023-04-03T15:35:18;15.60;;;7.25;;
55150;SDS011;41041;43.162;20.538;2023-04-03T15:37:44;15.40;;;7.05;;
55150;SDS011;41041;43.162;20.538;2023-04-03T15:40:11;12.25;;;7.88;;
55150;SDS011;41041;43.162;20.538;2023-04-03T15:42:37;9.82;;;7.70;;
55150;SDS011;41041;43.162;20.538;2023-04-03T15:45:04;11.38;;;8.63;;
55150;SDS011;41041;43.162;20.538;2023-04-03T15:47:30;11.70;;;8.05;;
55150;SDS011;41041;43.162;20.538;2023-04-03T15:49:56;11.15;;;8.27;;
55150;SDS011;41041;43.162;20.538;2023-04-03T15:52:23;9.73;;;7.95;;
55150;SDS011;41041;43.162;20.538;2023-04-03T15:55:03;12.70;;;7.60;;
55150;SDS011;41041;43.162;20.538;2023-04-03T15:57:29;10.15;;;8.30;;
55150;SDS011;41041;43.162;20.538;2023-04-03T15:59:55;11.10;;;8.43;;
55150;SDS011;41041;43.162;20.538;2023-04-03T16:02:21;8.20;;;7.22;;
55150;SDS011;41041;43.162;20.538;2023-04-03T16:04:48;10.00;;;7.95;;
55150;SDS011;41041;43.162;20.538;2023-04-03T16:07:14;11.60;;;8.43;;
55150;SDS011;41041;43.162;20.538;2023-04-03T16:09:40;10.07;;;7.70;;
55150;SDS011;41041;43.162;20.538;2023-04-03T16:12:06;8.80;;;7.63;;
55150;SDS011;41041;43.162;20.538;2023-04-03T16:14:32;10.75;;;8.65;;
55150;SDS011;41041;43.162;20.538;2023-04-03T16:16:58;10.30;;;7.45;;
55150;SDS011;41041;43.162;20.538;2023-04-03T16:19:25;9.18;;;7.38;;
55150;SDS011;41041;43.162;20.538;2023-04-03T16:21:51;9.68;;;7.55;;
55150;SDS011;41041;43.162;20.538;2023-04-03T16:24:17;8.30;;;6.95;;
55150;SDS011;41041;43.162;20.538;2023-04-03T16:26:43;8.95;;;6.68;;